sensor_id;sensor_type;location;lat;lon;timestamp;pressure;altitude;pressure_sealevel;temperature;humidity
32456;BME280;18912;43.270;27.942;2022-09-09T00:04:30;98440.34;;;19.92;83.79
32456;BME280;18912;43.270;27.942;2022-09-09T00:07:10;98446.75;;;20.02;82.97
32456;BME280;18912;43.270;27.942;2022-09-09T00:12:42;98436.91;;;20.06;83.06
32456;BME280;18912;43.270;27.942;2022-09-09T00:15:16;98434.81;;;20.13;82.69
32456;BME280;18912;43.270;27.942;2022-09-09T00:20:24;98427.88;;;20.06;83.11
32456;BME280;18912;43.270;27.942;2022-09-09T00:23:05;98436.84;;;19.96;84.20
32456;BME280;18912;43.270;27.942;2022-09-09T00:25:48;98421.59;;;20.10;83.22
32456;BME280;18912;43.270;27.942;2022-09-09T00:28:20;98425.91;;;20.01;83.15
32456;BME280;18912;43.270;27.942;2022-09-09T00:30:48;98426.19;;;20.05;82.70
32456;BME280;18912;43.270;27.942;2022-09-09T00:33:15;98421.88;;;20.14;82.31
32456;BME280;18912;43.270;27.942;2022-09-09T00:35:47;98425.63;;;20.03;82.85
32456;BME280;18912;43.270;27.942;2022-09-09T00:38:20;98432.53;;;20.05;82.73
32456;BME280;18912;43.270;27.942;2022-09-09T00:40:52;98428.94;;;20.05;82.61
32456;BME280;18912;43.270;27.942;2022-09-09T00:43:38;98428.22;;;20.14;82.77
32456;BME280;18912;43.270;27.942;2022-09-09T00:49:09;98421.91;;;19.87;82.65
32456;BME280;18912;43.270;27.942;2022-09-09T00:52:15;98423.03;;;19.91;82.51
32456;BME280;18912;43.270;27.942;2022-09-09T01:04:47;98414.97;;;19.53;82.46
32456;BME280;18912;43.270;27.942;2022-09-09T01:07:17;98417.06;;;19.46;82.72
32456;BME280;18912;43.270;27.942;2022-09-09T01:10:00;98408.28;;;19.44;82.97
32456;BME280;18912;43.270;27.942;2022-09-09T01:17:36;98402.97;;;19.16;83.92
32456;BME280;18912;43.270;27.942;2022-09-09T01:28:16;98416.53;;;19.06;84.67
32456;BME280;18912;43.270;27.942;2022-09-09T01:30:44;98414.94;;;19.10;84.60
32456;BME280;18912;43.270;27.942;2022-09-09T01:33:15;98418.13;;;19.02;84.93
32456;BME280;18912;43.270;27.942;2022-09-09T01:38:12;98416.97;;;18.98;86.30
32456;BME280;18912;43.270;27.942;2022-09-09T01:40:39;98409.28;;;18.95;85.52
32456;BME280;18912;43.270;27.942;2022-09-09T01:43:05;98406.97;;;18.87;85.03
32456;BME280;18912;43.270;27.942;2022-09-09T01:45:32;98406.28;;;18.75;85.96
32456;BME280;18912;43.270;27.942;2022-09-09T01:47:58;98402.63;;;18.69;86.67
32456;BME280;18912;43.270;27.942;2022-09-09T01:50:24;98416.53;;;18.67;86.81
32456;BME280;18912;43.270;27.942;2022-09-09T01:52:53;98404.94;;;18.60;87.90
32456;BME280;18912;43.270;27.942;2022-09-09T01:55:30;98403.13;;;18.66;88.77
32456;BME280;18912;43.270;27.942;2022-09-09T02:00:37;98405.38;;;18.69;89.47
32456;BME280;18912;43.270;27.942;2022-09-09T02:03:21;98404.63;;;18.57;90.13
32456;BME280;18912;43.270;27.942;2022-09-09T02:08:46;98413.44;;;18.59;91.14
32456;BME280;18912;43.270;27.942;2022-09-09T02:11:19;98411.84;;;18.63;91.83
32456;BME280;18912;43.270;27.942;2022-09-09T02:13:48;98419.81;;;18.64;91.26
32456;BME280;18912;43.270;27.942;2022-09-09T02:21:30;98415.16;;;18.65;92.35
32456;BME280;18912;43.270;27.942;2022-09-09T02:23:59;98412.00;;;18.56;92.88
32456;BME280;18912;43.270;27.942;2022-09-09T02:26:31;98407.63;;;18.55;93.02
32456;BME280;18912;43.270;27.942;2022-09-09T02:29:01;98414.09;;;18.49;93.64
32456;BME280;18912;43.270;27.942;2022-09-09T02:31:28;98412.09;;;18.45;93.49
32456;BME280;18912;43.270;27.942;2022-09-09T02:33:57;98419.00;;;18.47;93.38
32456;BME280;18912;43.270;27.942;2022-09-09T02:36:26;98416.25;;;18.47;93.58
32456;BME280;18912;43.270;27.942;2022-09-09T02:38:55;98414.09;;;18.49;94.97
32456;BME280;18912;43.270;27.942;2022-09-09T02:41:33;98421.72;;;18.47;94.35
32456;BME280;18912;43.270;27.942;2022-09-09T02:44:00;98417.16;;;18.53;94.63
32456;BME280;18912;43.270;27.942;2022-09-09T02:52:18;98403.53;;;18.58;94.84
32456;BME280;18912;43.270;27.942;2022-09-09T02:54:47;98410.84;;;18.52;95.49
32456;BME280;18912;43.270;27.942;2022-09-09T02:57:20;98414.44;;;18.53;95.87
32456;BME280;18912;43.270;27.942;2022-09-09T02:59:47;98412.59;;;18.58;95.63
32456;BME280;18912;43.270;27.942;2022-09-09T03:02:15;98420.22;;;18.56;95.78
32456;BME280;18912;43.270;27.942;2022-09-09T03:04:40;98409.84;;;18.58;95.47
32456;BME280;18912;43.270;27.942;2022-09-09T03:07:08;98412.00;;;18.56;94.98
32456;BME280;18912;43.270;27.942;2022-09-09T03:09:35;98407.84;;;18.54;94.94
32456;BME280;18912;43.270;27.942;2022-09-09T03:12:00;98407.78;;;18.49;94.84
32456;BME280;18912;43.270;27.942;2022-09-09T03:14:26;98406.94;;;18.48;95.15
32456;BME280;18912;43.270;27.942;2022-09-09T03:16:52;98413.53;;;18.47;95.42
32456;BME280;18912;43.270;27.942;2022-09-09T03:19:18;98419.00;;;18.47;95.64
32456;BME280;18912;43.270;27.942;2022-09-09T03:21:45;98419.25;;;18.46;95.17
32456;BME280;18912;43.270;27.942;2022-09-09T03:24:11;98425.94;;;18.38;95.35
32456;BME280;18912;43.270;27.942;2022-09-09T03:26:36;98424.69;;;18.29;96.09
32456;BME280;18912;43.270;27.942;2022-09-09T03:29:06;98425.25;;;18.31;95.72
32456;BME280;18912;43.270;27.942;2022-09-09T03:31:35;98422.88;;;18.35;95.66
32456;BME280;18912;43.270;27.942;2022-09-09T03:34:01;98427.50;;;18.34;96.83
32456;BME280;18912;43.270;27.942;2022-09-09T03:36:28;98424.78;;;18.34;96.80
32456;BME280;18912;43.270;27.942;2022-09-09T03:38:54;98419.31;;;18.34;98.24
32456;BME280;18912;43.270;27.942;2022-09-09T03:41:24;98424.19;;;18.32;97.69
32456;BME280;18912;43.270;27.942;2022-09-09T03:43:53;98420.56;;;18.27;97.90
32456;BME280;18912;43.270;27.942;2022-09-09T03:46:23;98416.81;;;18.16;98.38
32456;BME280;18912;43.270;27.942;2022-09-09T03:48:50;98414.56;;;18.13;98.45
32456;BME280;18912;43.270;27.942;2022-09-09T03:51:17;98409.75;;;18.20;97.88
32456;BME280;18912;43.270;27.942;2022-09-09T03:53:43;98412.59;;;18.25;97.17
32456;BME280;18912;43.270;27.942;2022-09-09T03:56:09;98412.81;;;18.24;96.03
32456;BME280;18912;43.270;27.942;2022-09-09T03:58:36;98424.59;;;18.24;95.87
32456;BME280;18912;43.270;27.942;2022-09-09T04:01:08;98419.66;;;18.21;96.07
32456;BME280;18912;43.270;27.942;2022-09-09T04:03:34;98419.38;;;18.23;96.56
32456;BME280;18912;43.270;27.942;2022-09-09T04:06:01;98427.41;;;18.29;97.30
32456;BME280;18912;43.270;27.942;2022-09-09T04:08:28;98417.03;;;18.31;97.15
32456;BME280;18912;43.270;27.942;2022-09-09T04:10:57;98410.59;;;18.37;96.74
32456;BME280;18912;43.270;27.942;2022-09-09T04:13:23;98427.25;;;18.36;96.96
32456;BME280;18912;43.270;27.942;2022-09-09T04:15:59;98424.41;;;18.42;97.63
32456;BME280;18912;43.270;27.942;2022-09-09T04:18:25;98419.84;;;18.48;98.50
32456;BME280;18912;43.270;27.942;2022-09-09T04:20:52;98422.22;;;18.61;98.78
32456;BME280;18912;43.270;27.942;2022-09-09T04:23:18;98418.81;;;18.71;99.33
32456;BME280;18912;43.270;27.942;2022-09-09T04:25:50;98414.81;;;18.78;99.13
32456;BME280;18912;43.270;27.942;2022-09-09T04:28:17;98422.34;;;18.88;99.37
32456;BME280;18912;43.270;27.942;2022-09-09T04:30:43;98424.44;;;19.02;100.00
32456;BME280;18912;43.270;27.942;2022-09-09T04:33:09;98423.31;;;19.20;99.86
32456;BME280;18912;43.270;27.942;2022-09-09T04:35:35;98424.19;;;19.25;100.00
32456;BME280;18912;43.270;27.942;2022-09-09T04:38:01;98435.69;;;19.44;100.00
32456;BME280;18912;43.270;27.942;2022-09-09T04:40:28;98426.63;;;19.65;100.00
32456;BME280;18912;43.270;27.942;2022-09-09T04:42:55;98431.81;;;19.88;99.83
32456;BME280;18912;43.270;27.942;2022-09-09T04:45:20;98441.59;;;20.06;99.41
32456;BME280;18912;43.270;27.942;2022-09-09T04:47:46;98442.50;;;20.16;98.86
32456;BME280;18912;43.270;27.942;2022-09-09T04:50:11;98438.41;;;20.45;97.76
32456;BME280;18912;43.270;27.942;2022-09-09T04:52:37;98422.53;;;20.58;96.61
32456;BME280;18912;43.270;27.942;2022-09-09T04:55:03;98419.91;;;20.73;95.91
32456;BME280;18912;43.270;27.942;2022-09-09T04:57:29;98416.66;;;20.81;95.62
32456;BME280;18912;43.270;27.942;2022-09-09T04:59:57;98417.88;;;20.95;94.43
32456;BME280;18912;43.270;27.942;2022-09-09T05:02:23;98425.09;;;21.06;93.69
32456;BME280;18912;43.270;27.942;2022-09-09T05:04:48;98423.78;;;21.18;92.95
32456;BME280;18912;43.270;27.942;2022-09-09T05:07:15;98427.09;;;21.20;93.09
32456;BME280;18912;43.270;27.942;2022-09-09T05:09:40;98432.13;;;21.44;92.48
32456;BME280;18912;43.270;27.942;2022-09-09T05:12:06;98432.50;;;21.67;91.23
32456;BME280;18912;43.270;27.942;2022-09-09T05:14:31;98428.09;;;21.71;90.64
32456;BME280;18912;43.270;27.942;2022-09-09T05:16:57;98433.06;;;21.74;89.70
32456;BME280;18912;43.270;27.942;2022-09-09T05:19:23;98429.75;;;21.67;89.84
32456;BME280;18912;43.270;27.942;2022-09-09T05:21:48;98435.25;;;21.72;89.65
32456;BME280;18912;43.270;27.942;2022-09-09T05:24:15;98435.06;;;21.84;89.75
32456;BME280;18912;43.270;27.942;2022-09-09T05:26:40;98428.22;;;22.01;88.35
32456;BME280;18912;43.270;27.942;2022-09-09T05:29:06;98424.91;;;22.09;88.56
32456;BME280;18912;43.270;27.942;2022-09-09T05:31:33;98429.34;;;22.36;87.42
32456;BME280;18912;43.270;27.942;2022-09-09T05:33:59;98428.78;;;22.28;87.53
32456;BME280;18912;43.270;27.942;2022-09-09T05:36:24;98424.91;;;22.35;87.44
32456;BME280;18912;43.270;27.942;2022-09-09T05:38:50;98434.03;;;22.30;87.65
32456;BME280;18912;43.270;27.942;2022-09-09T05:41:16;98428.78;;;22.28;88.45
32456;BME280;18912;43.270;27.942;2022-09-09T05:43:42;98424.38;;;22.48;87.39
32456;BME280;18912;43.270;27.942;2022-09-09T05:46:21;98426.59;;;22.66;87.15
32456;BME280;18912;43.270;27.942;2022-09-09T05:48:46;98415.78;;;22.89;86.48
32456;BME280;18912;43.270;27.942;2022-09-09T05:51:18;98413.25;;;23.23;84.69
32456;BME280;18912;43.270;27.942;2022-09-09T05:53:46;98421.50;;;23.38;83.64
32456;BME280;18912;43.270;27.942;2022-09-09T05:56:25;98421.41;;;23.48;82.69
32456;BME280;18912;43.270;27.942;2022-09-09T05:58:52;98419.28;;;23.40;84.15
32456;BME280;18912;43.270;27.942;2022-09-09T06:01:21;98416.38;;;23.65;82.97
32456;BME280;18912;43.270;27.942;2022-09-09T06:03:49;98419.28;;;23.35;85.02
32456;BME280;18912;43.270;27.942;2022-09-09T06:06:17;98424.25;;;23.33;85.34
32456;BME280;18912;43.270;27.942;2022-09-09T06:08:44;98431.53;;;23.68;83.25
32456;BME280;18912;43.270;27.942;2022-09-09T06:11:14;98413.53;;;23.80;81.59
32456;BME280;18912;43.270;27.942;2022-09-09T06:13:41;98423.34;;;24.06;80.28
32456;BME280;18912;43.270;27.942;2022-09-09T06:16:11;98421.97;;;24.04;81.25
32456;BME280;18912;43.270;27.942;2022-09-09T06:18:37;98415.75;;;24.27;80.20
32456;BME280;18912;43.270;27.942;2022-09-09T06:21:05;98424.53;;;24.63;78.84
32456;BME280;18912;43.270;27.942;2022-09-09T06:23:35;98417.75;;;24.84;77.13
32456;BME280;18912;43.270;27.942;2022-09-09T06:28:34;98430.56;;;24.75;76.78
32456;BME280;18912;43.270;27.942;2022-09-09T06:31:01;98434.63;;;24.82;75.98
32456;BME280;18912;43.270;27.942;2022-09-09T06:33:30;98428.34;;;24.72;73.61
32456;BME280;18912;43.270;27.942;2022-09-09T06:35:56;98431.38;;;24.70;75.74
32456;BME280;18912;43.270;27.942;2022-09-09T06:38:22;98439.28;;;24.87;73.49
32456;BME280;18912;43.270;27.942;2022-09-09T06:40:55;98453.88;;;24.59;73.02
32456;BME280;18912;43.270;27.942;2022-09-09T06:43:22;98437.28;;;24.92;72.48
32456;BME280;18912;43.270;27.942;2022-09-09T06:45:58;98448.47;;;25.06;72.71
32456;BME280;18912;43.270;27.942;2022-09-09T06:48:24;98445.66;;;25.35;73.45
32456;BME280;18912;43.270;27.942;2022-09-09T06:51:10;98457.06;;;25.57;71.78
32456;BME280;18912;43.270;27.942;2022-09-09T06:53:37;98463.25;;;25.49;67.39
32456;BME280;18912;43.270;27.942;2022-09-09T06:58:55;98449.88;;;25.56;68.49
32456;BME280;18912;43.270;27.942;2022-09-09T07:01:23;98451.66;;;25.89;66.75
32456;BME280;18912;43.270;27.942;2022-09-09T07:03:51;98457.78;;;26.10;66.71
32456;BME280;18912;43.270;27.942;2022-09-09T07:06:20;98454.88;;;25.77;63.80
32456;BME280;18912;43.270;27.942;2022-09-09T07:08:50;98450.97;;;25.78;63.49
32456;BME280;18912;43.270;27.942;2022-09-09T07:11:18;98451.47;;;25.62;63.26
32456;BME280;18912;43.270;27.942;2022-09-09T07:13:43;98461.59;;;25.71;63.05
32456;BME280;18912;43.270;27.942;2022-09-09T07:16:11;98455.69;;;25.78;65.54
32456;BME280;18912;43.270;27.942;2022-09-09T07:18:37;98448.53;;;26.14;64.56
32456;BME280;18912;43.270;27.942;2022-09-09T07:21:03;98465.66;;;26.21;64.54
32456;BME280;18912;43.270;27.942;2022-09-09T07:23:30;98458.22;;;26.17;62.42
32456;BME280;18912;43.270;27.942;2022-09-09T07:25:56;98457.44;;;25.92;60.77
32456;BME280;18912;43.270;27.942;2022-09-09T07:28:22;98457.25;;;26.26;65.78
32456;BME280;18912;43.270;27.942;2022-09-09T07:30:56;98451.19;;;26.06;65.01
32456;BME280;18912;43.270;27.942;2022-09-09T07:33:22;98461.47;;;26.00;66.74
32456;BME280;18912;43.270;27.942;2022-09-09T07:35:48;98441.91;;;26.66;68.09
32456;BME280;18912;43.270;27.942;2022-09-09T07:38:14;98450.53;;;26.64;66.58
32456;BME280;18912;43.270;27.942;2022-09-09T07:40:40;98457.66;;;25.96;68.94
32456;BME280;18912;43.270;27.942;2022-09-09T07:43:05;98454.44;;;26.45;68.83
32456;BME280;18912;43.270;27.942;2022-09-09T07:45:30;98458.94;;;26.59;67.24
32456;BME280;18912;43.270;27.942;2022-09-09T07:47:57;98477.78;;;26.25;70.16
32456;BME280;18912;43.270;27.942;2022-09-09T07:50:23;98462.13;;;26.16;70.06
32456;BME280;18912;43.270;27.942;2022-09-09T07:52:50;98466.22;;;26.37;70.58
32456;BME280;18912;43.270;27.942;2022-09-09T07:55:16;98455.75;;;26.66;67.93
32456;BME280;18912;43.270;27.942;2022-09-09T07:57:41;98462.91;;;27.18;68.42
32456;BME280;18912;43.270;27.942;2022-09-09T08:00:07;98475.09;;;28.03;63.70
32456;BME280;18912;43.270;27.942;2022-09-09T08:02:33;98496.72;;;27.06;64.16
32456;BME280;18912;43.270;27.942;2022-09-09T08:04:58;98460.38;;;26.57;67.09
32456;BME280;18912;43.270;27.942;2022-09-09T08:07:24;98491.06;;;26.60;65.26
32456;BME280;18912;43.270;27.942;2022-09-09T08:09:49;98457.91;;;26.37;67.27
32456;BME280;18912;43.270;27.942;2022-09-09T08:12:15;98464.69;;;26.44;64.19
32456;BME280;18912;43.270;27.942;2022-09-09T08:14:41;98463.97;;;26.57;64.13
32456;BME280;18912;43.270;27.942;2022-09-09T08:17:07;98477.66;;;27.00;62.17
32456;BME280;18912;43.270;27.942;2022-09-09T08:19:32;98466.75;;;26.20;63.34
32456;BME280;18912;43.270;27.942;2022-09-09T08:22:02;98457.97;;;27.01;61.72
32456;BME280;18912;43.270;27.942;2022-09-09T08:24:28;98449.34;;;27.30;60.14
32456;BME280;18912;43.270;27.942;2022-09-09T08:26:54;98457.19;;;28.09;60.63
32456;BME280;18912;43.270;27.942;2022-09-09T08:29:21;98458.44;;;27.90;60.97
32456;BME280;18912;43.270;27.942;2022-09-09T08:31:52;98452.16;;;27.98;59.58
32456;BME280;18912;43.270;27.942;2022-09-09T08:34:19;98447.66;;;27.75;61.39
32456;BME280;18912;43.270;27.942;2022-09-09T08:36:47;98438.28;;;27.70;62.53
32456;BME280;18912;43.270;27.942;2022-09-09T08:39:15;98427.97;;;27.85;62.56
32456;BME280;18912;43.270;27.942;2022-09-09T08:50:27;98439.19;;;27.66;58.62
32456;BME280;18912;43.270;27.942;2022-09-09T08:58:33;98433.50;;;27.17;59.64
32456;BME280;18912;43.270;27.942;2022-09-09T09:11:50;98408.84;;;27.15;60.88
32456;BME280;18912;43.270;27.942;2022-09-09T09:14:24;98416.03;;;27.30;53.54
32456;BME280;18912;43.270;27.942;2022-09-09T09:17:02;98435.13;;;26.91;48.38
32456;BME280;18912;43.270;27.942;2022-09-09T09:19:30;98424.63;;;26.74;58.80
32456;BME280;18912;43.270;27.942;2022-09-09T09:24:51;98426.41;;;26.65;58.69
32456;BME280;18912;43.270;27.942;2022-09-09T09:30:19;98431.88;;;26.70;54.43
32456;BME280;18912;43.270;27.942;2022-09-09T09:32:56;98435.94;;;26.91;57.64
32456;BME280;18912;43.270;27.942;2022-09-09T09:35:23;98442.44;;;27.00;53.95
32456;BME280;18912;43.270;27.942;2022-09-09T09:37:49;98432.91;;;27.06;54.82
32456;BME280;18912;43.270;27.942;2022-09-09T09:40:17;98435.44;;;26.89;57.12
32456;BME280;18912;43.270;27.942;2022-09-09T09:42:55;98431.00;;;26.88;60.85
32456;BME280;18912;43.270;27.942;2022-09-09T09:45:41;98453.41;;;27.51;51.13
32456;BME280;18912;43.270;27.942;2022-09-09T09:48:12;98472.06;;;27.05;55.27
32456;BME280;18912;43.270;27.942;2022-09-09T09:53:25;98427.09;;;26.57;53.13
32456;BME280;18912;43.270;27.942;2022-09-09T09:56:01;98442.00;;;26.61;57.11
32456;BME280;18912;43.270;27.942;2022-09-09T09:58:30;98447.28;;;26.44;55.57
32456;BME280;18912;43.270;27.942;2022-09-09T10:00:59;98423.91;;;26.82;57.78
32456;BME280;18912;43.270;27.942;2022-09-09T10:05:54;98426.56;;;26.55;58.34
32456;BME280;18912;43.270;27.942;2022-09-09T10:08:22;98426.66;;;26.50;54.72
32456;BME280;18912;43.270;27.942;2022-09-09T10:13:28;98411.56;;;26.56;59.79
32456;BME280;18912;43.270;27.942;2022-09-09T10:21:31;98421.03;;;26.55;54.81
32456;BME280;18912;43.270;27.942;2022-09-09T10:38:20;98411.72;;;25.53;57.43
32456;BME280;18912;43.270;27.942;2022-09-09T10:52:23;98413.00;;;25.37;67.42
32456;BME280;18912;43.270;27.942;2022-09-09T10:55:15;98404.19;;;25.58;61.74
32456;BME280;18912;43.270;27.942;2022-09-09T11:00:35;98428.59;;;25.04;65.62
32456;BME280;18912;43.270;27.942;2022-09-09T11:03:03;98415.66;;;24.99;67.60
32456;BME280;18912;43.270;27.942;2022-09-09T11:05:43;98396.22;;;25.52;66.06
32456;BME280;18912;43.270;27.942;2022-09-09T11:08:21;98404.69;;;25.37;68.02
32456;BME280;18912;43.270;27.942;2022-09-09T11:11:09;98397.78;;;25.39;68.18
32456;BME280;18912;43.270;27.942;2022-09-09T11:16:29;98405.53;;;24.56;74.38
32456;BME280;18912;43.270;27.942;2022-09-09T11:19:00;98403.88;;;25.13;73.86
32456;BME280;18912;43.270;27.942;2022-09-09T11:21:32;98415.66;;;25.23;70.07
32456;BME280;18912;43.270;27.942;2022-09-09T11:24:04;98420.50;;;24.84;69.07
32456;BME280;18912;43.270;27.942;2022-09-09T11:27:02;98425.41;;;24.92;71.00
32456;BME280;18912;43.270;27.942;2022-09-09T11:38:11;98398.47;;;25.26;69.47
32456;BME280;18912;43.270;27.942;2022-09-09T11:40:39;98420.25;;;25.09;70.72
32456;BME280;18912;43.270;27.942;2022-09-09T11:43:13;98385.50;;;24.98;72.39
32456;BME280;18912;43.270;27.942;2022-09-09T11:45:41;98401.53;;;25.01;76.31
32456;BME280;18912;43.270;27.942;2022-09-09T11:48:27;98411.47;;;25.02;75.30
32456;BME280;18912;43.270;27.942;2022-09-09T11:50:59;98399.47;;;24.88;76.12
32456;BME280;18912;43.270;27.942;2022-09-09T11:53:25;98384.47;;;24.94;77.01
32456;BME280;18912;43.270;27.942;2022-09-09T11:56:22;98397.47;;;24.93;74.21
32456;BME280;18912;43.270;27.942;2022-09-09T11:59:03;98387.47;;;24.69;76.41
32456;BME280;18912;43.270;27.942;2022-09-09T12:11:44;98367.66;;;24.57;81.67
32456;BME280;18912;43.270;27.942;2022-09-09T12:14:34;98363.50;;;24.59;83.14
32456;BME280;18912;43.270;27.942;2022-09-09T12:17:18;98386.47;;;24.55;82.38
32456;BME280;18912;43.270;27.942;2022-09-09T12:19:44;98378.97;;;24.60;80.29
32456;BME280;18912;43.270;27.942;2022-09-09T12:27:45;98365.00;;;24.75;73.81
32456;BME280;18912;43.270;27.942;2022-09-09T12:30:17;98366.31;;;24.26;76.95
32456;BME280;18912;43.270;27.942;2022-09-09T12:32:42;98360.53;;;24.51;79.70
32456;BME280;18912;43.270;27.942;2022-09-09T12:35:19;98355.22;;;24.59;79.36
32456;BME280;18912;43.270;27.942;2022-09-09T12:38:02;98361.28;;;24.61;79.78
32456;BME280;18912;43.270;27.942;2022-09-09T12:40:33;98359.16;;;24.82;77.54
32456;BME280;18912;43.270;27.942;2022-09-09T12:43:21;98371.72;;;24.36;75.79
32456;BME280;18912;43.270;27.942;2022-09-09T12:45:49;98366.13;;;24.46;77.03
32456;BME280;18912;43.270;27.942;2022-09-09T12:48:18;98365.66;;;24.39;81.13
32456;BME280;18912;43.270;27.942;2022-09-09T12:50:48;98356.13;;;24.21;75.64
32456;BME280;18912;43.270;27.942;2022-09-09T12:53:30;98363.88;;;24.19;79.02
32456;BME280;18912;43.270;27.942;2022-09-09T12:56:03;98344.00;;;24.46;80.11
32456;BME280;18912;43.270;27.942;2022-09-09T12:58:30;98350.38;;;24.46;79.04
32456;BME280;18912;43.270;27.942;2022-09-09T13:00:59;98336.94;;;24.35;82.94
32456;BME280;18912;43.270;27.942;2022-09-09T13:03:26;98360.19;;;24.29;84.22
32456;BME280;18912;43.270;27.942;2022-09-09T13:05:53;98336.59;;;24.41;80.15
32456;BME280;18912;43.270;27.942;2022-09-09T13:08:19;98343.16;;;24.22;84.55
32456;BME280;18912;43.270;27.942;2022-09-09T13:10:55;98327.50;;;24.41;83.93
32456;BME280;18912;43.270;27.942;2022-09-09T13:13:50;98342.63;;;24.15;82.40
32456;BME280;18912;43.270;27.942;2022-09-09T13:16:29;98323.22;;;24.25;77.48
32456;BME280;18912;43.270;27.942;2022-09-09T13:18:58;98329.03;;;24.52;81.14
32456;BME280;18912;43.270;27.942;2022-09-09T13:21:39;98308.69;;;24.43;83.44
32456;BME280;18912;43.270;27.942;2022-09-09T13:24:19;98319.28;;;24.31;83.84
32456;BME280;18912;43.270;27.942;2022-09-09T13:26:58;98316.06;;;24.52;81.52
32456;BME280;18912;43.270;27.942;2022-09-09T13:29:24;98311.91;;;24.50;80.00
32456;BME280;18912;43.270;27.942;2022-09-09T13:31:50;98323.44;;;24.57;82.69
32456;BME280;18912;43.270;27.942;2022-09-09T13:34:32;98312.44;;;24.80;81.68
32456;BME280;18912;43.270;27.942;2022-09-09T13:37:03;98314.19;;;24.95;79.10
32456;BME280;18912;43.270;27.942;2022-09-09T13:39:37;98315.22;;;24.52;81.76
32456;BME280;18912;43.270;27.942;2022-09-09T13:42:03;98319.63;;;24.24;80.14
32456;BME280;18912;43.270;27.942;2022-09-09T13:44:38;98304.34;;;24.32;80.79
32456;BME280;18912;43.270;27.942;2022-09-09T13:47:19;98311.31;;;24.29;82.28
32456;BME280;18912;43.270;27.942;2022-09-09T13:49:45;98310.94;;;24.07;82.68
32456;BME280;18912;43.270;27.942;2022-09-09T13:52:12;98318.97;;;24.03;85.86
32456;BME280;18912;43.270;27.942;2022-09-09T13:54:39;98306.69;;;24.20;84.16
32456;BME280;18912;43.270;27.942;2022-09-09T13:57:05;98315.66;;;24.06;85.10
32456;BME280;18912;43.270;27.942;2022-09-09T13:59:39;98313.97;;;24.11;82.93
32456;BME280;18912;43.270;27.942;2022-09-09T14:02:04;98319.84;;;23.94;85.78
32456;BME280;18912;43.270;27.942;2022-09-09T14:04:30;98316.78;;;24.00;86.32
32456;BME280;18912;43.270;27.942;2022-09-09T14:06:56;98326.06;;;23.76;86.79
32456;BME280;18912;43.270;27.942;2022-09-09T14:09:21;98333.66;;;23.55;88.05
32456;BME280;18912;43.270;27.942;2022-09-09T14:11:47;98311.59;;;23.55;88.12
32456;BME280;18912;43.270;27.942;2022-09-09T14:14:12;98311.19;;;23.72;88.19
32456;BME280;18912;43.270;27.942;2022-09-09T14:16:38;98292.84;;;23.86;86.72
32456;BME280;18912;43.270;27.942;2022-09-09T14:19:04;98295.38;;;23.82;88.85
32456;BME280;18912;43.270;27.942;2022-09-09T14:21:29;98299.56;;;23.75;89.20
32456;BME280;18912;43.270;27.942;2022-09-09T14:23:55;98285.50;;;23.76;88.26
32456;BME280;18912;43.270;27.942;2022-09-09T14:26:23;98292.59;;;23.87;85.99
32456;BME280;18912;43.270;27.942;2022-09-09T14:28:49;98292.66;;;23.77;86.81
32456;BME280;18912;43.270;27.942;2022-09-09T14:31:15;98275.09;;;23.63;85.86
32456;BME280;18912;43.270;27.942;2022-09-09T14:33:43;98275.97;;;23.54;87.93
32456;BME280;18912;43.270;27.942;2022-09-09T14:36:09;98281.69;;;23.67;85.56
32456;BME280;18912;43.270;27.942;2022-09-09T14:38:37;98278.72;;;23.59;87.25
32456;BME280;18912;43.270;27.942;2022-09-09T14:41:09;98274.41;;;23.48;82.42
32456;BME280;18912;43.270;27.942;2022-09-09T14:43:40;98270.09;;;23.65;83.67
32456;BME280;18912;43.270;27.942;2022-09-09T14:46:10;98274.16;;;23.78;85.51
32456;BME280;18912;43.270;27.942;2022-09-09T14:48:36;98270.91;;;23.71;86.01
32456;BME280;18912;43.270;27.942;2022-09-09T14:51:28;98265.78;;;23.88;84.11
32456;BME280;18912;43.270;27.942;2022-09-09T14:53:56;98281.03;;;23.80;82.88
32456;BME280;18912;43.270;27.942;2022-09-09T14:56:24;98285.22;;;23.73;85.16
32456;BME280;18912;43.270;27.942;2022-09-09T14:58:54;98282.63;;;23.53;86.31
32456;BME280;18912;43.270;27.942;2022-09-09T15:01:20;98288.97;;;23.53;86.01
32456;BME280;18912;43.270;27.942;2022-09-09T15:03:54;98286.34;;;23.33;87.04
32456;BME280;18912;43.270;27.942;2022-09-09T15:06:21;98287.50;;;23.17;88.63
32456;BME280;18912;43.270;27.942;2022-09-09T15:08:47;98285.19;;;23.39;84.91
32456;BME280;18912;43.270;27.942;2022-09-09T15:11:15;98274.66;;;23.46;84.18
32456;BME280;18912;43.270;27.942;2022-09-09T15:13:42;98271.44;;;23.29;86.63
32456;BME280;18912;43.270;27.942;2022-09-09T15:16:17;98268.75;;;23.19;87.45
32456;BME280;18912;43.270;27.942;2022-09-09T15:18:43;98265.13;;;23.23;85.67
32456;BME280;18912;43.270;27.942;2022-09-09T15:21:15;98269.25;;;23.26;82.85
32456;BME280;18912;43.270;27.942;2022-09-09T15:23:41;98268.22;;;23.12;84.81
32456;BME280;18912;43.270;27.942;2022-09-09T15:26:08;98276.47;;;23.17;84.11
32456;BME280;18912;43.270;27.942;2022-09-09T15:28:35;98281.91;;;23.37;83.89
32456;BME280;18912;43.270;27.942;2022-09-09T15:31:09;98282.50;;;23.24;84.15
32456;BME280;18912;43.270;27.942;2022-09-09T15:33:35;98273.72;;;23.12;83.75
32456;BME280;18912;43.270;27.942;2022-09-09T15:38:42;98267.13;;;23.08;82.58
32456;BME280;18912;43.270;27.942;2022-09-09T15:41:08;98280.34;;;23.16;81.98
32456;BME280;18912;43.270;27.942;2022-09-09T15:43:34;98274.06;;;23.05;84.68
32456;BME280;18912;43.270;27.942;2022-09-09T15:46:21;98270.53;;;22.90;86.05